KJQF

Concord Regional Airport

Concord, North Carolina, USA
METAR KJQF 210400Z AUTO 00000KT 10SM SCT036 24/23 A3008 RMK AO2 LTG DSNT E
Observed Flight Rules
Aug-21 @ 04:00 UTC (11 minutes ago) Visual Flight Rules
Visibility Clouds
10 miles
  • Scattered at 3,600' AGL
Temperatures Readings
Current 24°C / 75°F
Dewpoint 23°C / 73°F
Humidity 94%
Altimeter 30.08" Hg
Pressure 1019 hPa
Elevation 210
METAR KJQF 210400Z AUTO 00000KT 10SM SCT036 24/23 A3008 RMK AO2 LTG DSNT E
Observed Flight Rules
Aug-21 @ 04:00 UTC
(11 minutes ago)
VFR
Clouds
  • Scattered at 3,600' AGL
Temperature Dewpoint
24°C / 75°F 23°C / 73°F
Humidity Altimeter Pressure
94% 30.08" Hg 1019 hPa